sensor_id;sensor_type;location;lat;lon;timestamp;P1;durP1;ratioP1;P2;durP2;ratioP2
26656;SDS011;14279;50.010;8.260;2022-12-11T00:01:49;36.00;;;20.60;;
26656;SDS011;14279;50.010;8.260;2022-12-11T00:04:14;33.63;;;20.03;;
26656;SDS011;14279;50.010;8.260;2022-12-11T00:06:39;33.67;;;19.90;;
26656;SDS011;14279;50.010;8.260;2022-12-11T00:09:04;35.13;;;20.17;;
26656;SDS011;14279;50.010;8.260;2022-12-11T00:11:30;31.63;;;20.53;;
26656;SDS011;14279;50.010;8.260;2022-12-11T00:13:55;34.07;;;18.90;;
26656;SDS011;14279;50.010;8.260;2022-12-11T00:16:20;33.50;;;19.17;;
26656;SDS011;14279;50.010;8.260;2022-12-11T00:18:45;36.97;;;21.87;;
26656;SDS011;14279;50.010;8.260;2022-12-11T00:21:12;36.20;;;20.70;;
26656;SDS011;14279;50.010;8.260;2022-12-11T00:23:38;32.27;;;20.20;;
26656;SDS011;14279;50.010;8.260;2022-12-11T00:26:04;38.90;;;21.47;;
26656;SDS011;14279;50.010;8.260;2022-12-11T00:28:34;37.00;;;21.80;;
26656;SDS011;14279;50.010;8.260;2022-12-11T00:31:03;37.60;;;22.07;;
26656;SDS011;14279;50.010;8.260;2022-12-11T00:33:30;32.70;;;20.90;;
26656;SDS011;14279;50.010;8.260;2022-12-11T00:35:55;36.50;;;20.80;;
26656;SDS011;14279;50.010;8.260;2022-12-11T00:38:21;37.73;;;21.87;;
26656;SDS011;14279;50.010;8.260;2022-12-11T00:40:46;40.03;;;22.87;;
26656;SDS011;14279;50.010;8.260;2022-12-11T00:43:12;35.13;;;21.93;;
26656;SDS011;14279;50.010;8.260;2022-12-11T00:45:41;38.80;;;21.77;;
26656;SDS011;14279;50.010;8.260;2022-12-11T00:48:08;40.73;;;23.63;;
26656;SDS011;14279;50.010;8.260;2022-12-11T00:50:34;34.40;;;21.47;;
26656;SDS011;14279;50.010;8.260;2022-12-11T00:53:00;41.30;;;23.30;;
26656;SDS011;14279;50.010;8.260;2022-12-11T00:55:26;41.50;;;22.23;;
26656;SDS011;14279;50.010;8.260;2022-12-11T00:57:55;35.90;;;22.80;;
26656;SDS011;14279;50.010;8.260;2022-12-11T01:00:21;35.60;;;21.47;;
26656;SDS011;14279;50.010;8.260;2022-12-11T01:02:47;38.27;;;23.30;;
26656;SDS011;14279;50.010;8.260;2022-12-11T01:05:13;37.13;;;23.00;;
26656;SDS011;14279;50.010;8.260;2022-12-11T01:07:38;36.33;;;22.13;;
26656;SDS011;14279;50.010;8.260;2022-12-11T01:10:04;37.37;;;21.10;;
26656;SDS011;14279;50.010;8.260;2022-12-11T01:12:48;42.90;;;21.30;;
26656;SDS011;14279;50.010;8.260;2022-12-11T01:15:14;37.43;;;22.33;;
26656;SDS011;14279;50.010;8.260;2022-12-11T01:17:39;37.00;;;21.57;;
26656;SDS011;14279;50.010;8.260;2022-12-11T01:20:05;34.90;;;21.93;;
26656;SDS011;14279;50.010;8.260;2022-12-11T01:22:30;36.90;;;21.67;;
26656;SDS011;14279;50.010;8.260;2022-12-11T01:24:56;41.20;;;22.90;;
26656;SDS011;14279;50.010;8.260;2022-12-11T01:27:21;44.40;;;23.30;;
26656;SDS011;14279;50.010;8.260;2022-12-11T01:29:46;48.37;;;25.73;;
26656;SDS011;14279;50.010;8.260;2022-12-11T01:32:12;39.93;;;22.20;;
26656;SDS011;14279;50.010;8.260;2022-12-11T01:34:37;42.53;;;24.53;;
26656;SDS011;14279;50.010;8.260;2022-12-11T01:37:02;43.80;;;23.57;;
26656;SDS011;14279;50.010;8.260;2022-12-11T01:39:28;37.43;;;23.53;;
26656;SDS011;14279;50.010;8.260;2022-12-11T01:41:57;38.70;;;22.50;;
26656;SDS011;14279;50.010;8.260;2022-12-11T01:46:48;44.80;;;24.57;;
26656;SDS011;14279;50.010;8.260;2022-12-11T01:49:14;46.10;;;25.77;;
26656;SDS011;14279;50.010;8.260;2022-12-11T01:51:58;43.13;;;23.97;;
26656;SDS011;14279;50.010;8.260;2022-12-11T01:54:29;38.70;;;22.33;;
26656;SDS011;14279;50.010;8.260;2022-12-11T01:56:56;42.47;;;23.10;;
26656;SDS011;14279;50.010;8.260;2022-12-11T01:59:26;41.50;;;24.60;;
26656;SDS011;14279;50.010;8.260;2022-12-11T02:01:54;40.00;;;21.53;;
26656;SDS011;14279;50.010;8.260;2022-12-11T02:04:23;41.40;;;23.70;;
26656;SDS011;14279;50.010;8.260;2022-12-11T02:06:49;36.73;;;20.80;;
26656;SDS011;14279;50.010;8.260;2022-12-11T02:09:20;38.93;;;22.87;;
26656;SDS011;14279;50.010;8.260;2022-12-11T02:17:14;41.27;;;21.93;;
26656;SDS011;14279;50.010;8.260;2022-12-11T02:19:50;36.67;;;21.73;;
26656;SDS011;14279;50.010;8.260;2022-12-11T02:22:52;38.07;;;22.83;;
26656;SDS011;14279;50.010;8.260;2022-12-11T02:25:30;35.87;;;21.17;;
26656;SDS011;14279;50.010;8.260;2022-12-11T02:28:16;40.97;;;23.30;;
26656;SDS011;14279;50.010;8.260;2022-12-11T02:30:46;42.87;;;24.00;;
26656;SDS011;14279;50.010;8.260;2022-12-11T02:33:15;36.97;;;23.87;;
26656;SDS011;14279;50.010;8.260;2022-12-11T02:35:45;42.37;;;23.80;;
26656;SDS011;14279;50.010;8.260;2022-12-11T02:38:18;44.70;;;23.33;;
26656;SDS011;14279;50.010;8.260;2022-12-11T02:40:54;43.67;;;23.83;;
26656;SDS011;14279;50.010;8.260;2022-12-11T02:43:22;39.77;;;23.67;;
26656;SDS011;14279;50.010;8.260;2022-12-11T02:45:49;40.30;;;22.30;;
26656;SDS011;14279;50.010;8.260;2022-12-11T02:48:16;38.93;;;22.87;;
26656;SDS011;14279;50.010;8.260;2022-12-11T02:50:44;47.00;;;25.77;;
26656;SDS011;14279;50.010;8.260;2022-12-11T02:53:13;39.60;;;24.53;;
26656;SDS011;14279;50.010;8.260;2022-12-11T02:55:42;47.63;;;24.80;;
26656;SDS011;14279;50.010;8.260;2022-12-11T02:58:29;44.33;;;26.20;;
26656;SDS011;14279;50.010;8.260;2022-12-11T03:00:56;51.17;;;27.20;;
26656;SDS011;14279;50.010;8.260;2022-12-11T03:03:22;46.63;;;25.40;;
26656;SDS011;14279;50.010;8.260;2022-12-11T03:05:47;45.60;;;25.17;;
26656;SDS011;14279;50.010;8.260;2022-12-11T03:08:12;41.33;;;22.90;;
26656;SDS011;14279;50.010;8.260;2022-12-11T03:10:41;38.83;;;22.13;;
26656;SDS011;14279;50.010;8.260;2022-12-11T03:13:06;39.80;;;22.47;;
26656;SDS011;14279;50.010;8.260;2022-12-11T03:15:33;39.27;;;22.10;;
26656;SDS011;14279;50.010;8.260;2022-12-11T03:18:29;36.70;;;21.97;;
26656;SDS011;14279;50.010;8.260;2022-12-11T03:21:06;37.53;;;22.30;;
26656;SDS011;14279;50.010;8.260;2022-12-11T03:23:47;38.30;;;21.03;;
26656;SDS011;14279;50.010;8.260;2022-12-11T03:26:17;41.10;;;22.80;;
26656;SDS011;14279;50.010;8.260;2022-12-11T03:29:30;37.17;;;21.17;;
26656;SDS011;14279;50.010;8.260;2022-12-11T03:32:04;40.70;;;21.90;;
26656;SDS011;14279;50.010;8.260;2022-12-11T03:34:56;36.77;;;23.13;;
26656;SDS011;14279;50.010;8.260;2022-12-11T03:37:30;39.80;;;21.33;;
26656;SDS011;14279;50.010;8.260;2022-12-11T03:40:02;37.87;;;21.40;;
26656;SDS011;14279;50.010;8.260;2022-12-11T03:42:31;36.73;;;21.43;;
26656;SDS011;14279;50.010;8.260;2022-12-11T03:44:58;34.40;;;20.50;;
26656;SDS011;14279;50.010;8.260;2022-12-11T03:47:24;34.43;;;19.73;;
26656;SDS011;14279;50.010;8.260;2022-12-11T03:49:51;35.77;;;21.10;;
26656;SDS011;14279;50.010;8.260;2022-12-11T03:52:18;32.00;;;19.40;;
26656;SDS011;14279;50.010;8.260;2022-12-11T03:54:45;37.37;;;20.20;;
26656;SDS011;14279;50.010;8.260;2022-12-11T03:57:14;38.03;;;21.80;;
26656;SDS011;14279;50.010;8.260;2022-12-11T03:59:42;35.00;;;21.07;;
26656;SDS011;14279;50.010;8.260;2022-12-11T04:02:07;35.67;;;21.80;;
26656;SDS011;14279;50.010;8.260;2022-12-11T04:04:34;39.27;;;22.67;;
26656;SDS011;14279;50.010;8.260;2022-12-11T04:07:03;35.43;;;21.60;;
26656;SDS011;14279;50.010;8.260;2022-12-11T04:09:29;37.37;;;21.67;;
26656;SDS011;14279;50.010;8.260;2022-12-11T04:11:54;38.77;;;22.70;;
26656;SDS011;14279;50.010;8.260;2022-12-11T04:14:19;41.13;;;24.97;;
26656;SDS011;14279;50.010;8.260;2022-12-11T04:17:03;37.77;;;23.00;;
26656;SDS011;14279;50.010;8.260;2022-12-11T04:19:29;41.33;;;24.30;;
26656;SDS011;14279;50.010;8.260;2022-12-11T04:22:14;44.00;;;22.10;;
26656;SDS011;14279;50.010;8.260;2022-12-11T04:25:00;36.93;;;21.90;;
26656;SDS011;14279;50.010;8.260;2022-12-11T04:27:27;40.07;;;22.73;;
26656;SDS011;14279;50.010;8.260;2022-12-11T04:30:12;36.13;;;21.47;;
26656;SDS011;14279;50.010;8.260;2022-12-11T04:32:39;36.37;;;21.90;;
26656;SDS011;14279;50.010;8.260;2022-12-11T04:35:06;34.60;;;21.93;;
26656;SDS011;14279;50.010;8.260;2022-12-11T04:37:32;36.30;;;22.27;;
26656;SDS011;14279;50.010;8.260;2022-12-11T04:39:57;35.60;;;21.30;;
26656;SDS011;14279;50.010;8.260;2022-12-11T04:42:22;35.33;;;21.40;;
26656;SDS011;14279;50.010;8.260;2022-12-11T04:44:48;40.63;;;22.23;;
26656;SDS011;14279;50.010;8.260;2022-12-11T04:47:13;37.13;;;22.00;;
26656;SDS011;14279;50.010;8.260;2022-12-11T04:49:38;37.10;;;23.10;;
26656;SDS011;14279;50.010;8.260;2022-12-11T04:52:03;39.40;;;21.07;;
26656;SDS011;14279;50.010;8.260;2022-12-11T04:54:29;32.90;;;20.00;;
26656;SDS011;14279;50.010;8.260;2022-12-11T04:56:55;34.50;;;20.57;;
26656;SDS011;14279;50.010;8.260;2022-12-11T04:59:20;36.00;;;21.50;;
26656;SDS011;14279;50.010;8.260;2022-12-11T05:01:45;39.40;;;22.43;;
26656;SDS011;14279;50.010;8.260;2022-12-11T05:04:11;38.90;;;21.73;;
26656;SDS011;14279;50.010;8.260;2022-12-11T05:06:36;35.50;;;21.50;;
26656;SDS011;14279;50.010;8.260;2022-12-11T05:09:02;35.13;;;20.50;;
26656;SDS011;14279;50.010;8.260;2022-12-11T05:11:27;37.37;;;21.83;;
26656;SDS011;14279;50.010;8.260;2022-12-11T05:13:52;38.87;;;22.00;;
26656;SDS011;14279;50.010;8.260;2022-12-11T05:16:18;36.77;;;22.27;;
26656;SDS011;14279;50.010;8.260;2022-12-11T05:18:43;37.87;;;20.50;;
26656;SDS011;14279;50.010;8.260;2022-12-11T05:21:09;37.17;;;22.00;;
26656;SDS011;14279;50.010;8.260;2022-12-11T05:23:37;35.73;;;22.27;;
26656;SDS011;14279;50.010;8.260;2022-12-11T05:26:06;31.13;;;19.40;;
26656;SDS011;14279;50.010;8.260;2022-12-11T05:28:36;36.40;;;21.10;;
26656;SDS011;14279;50.010;8.260;2022-12-11T05:31:06;38.53;;;22.53;;
26656;SDS011;14279;50.010;8.260;2022-12-11T05:33:35;43.23;;;23.23;;
26656;SDS011;14279;50.010;8.260;2022-12-11T05:36:00;34.73;;;21.13;;
26656;SDS011;14279;50.010;8.260;2022-12-11T05:38:26;35.20;;;20.57;;
26656;SDS011;14279;50.010;8.260;2022-12-11T05:40:55;41.63;;;23.00;;
26656;SDS011;14279;50.010;8.260;2022-12-11T05:43:22;37.83;;;21.07;;
26656;SDS011;14279;50.010;8.260;2022-12-11T05:45:47;39.67;;;22.47;;
26656;SDS011;14279;50.010;8.260;2022-12-11T05:48:12;38.00;;;22.63;;
26656;SDS011;14279;50.010;8.260;2022-12-11T05:50:37;37.97;;;23.20;;
26656;SDS011;14279;50.010;8.260;2022-12-11T05:53:03;37.63;;;21.77;;
26656;SDS011;14279;50.010;8.260;2022-12-11T05:55:29;34.80;;;19.63;;
26656;SDS011;14279;50.010;8.260;2022-12-11T05:57:58;33.53;;;21.97;;
26656;SDS011;14279;50.010;8.260;2022-12-11T06:00:23;31.83;;;18.77;;
26656;SDS011;14279;50.010;8.260;2022-12-11T06:02:48;28.37;;;19.03;;
26656;SDS011;14279;50.010;8.260;2022-12-11T06:05:14;32.47;;;18.37;;
26656;SDS011;14279;50.010;8.260;2022-12-11T06:07:39;26.03;;;17.20;;
26656;SDS011;14279;50.010;8.260;2022-12-11T06:10:04;28.27;;;18.30;;
26656;SDS011;14279;50.010;8.260;2022-12-11T06:12:30;27.93;;;18.33;;
26656;SDS011;14279;50.010;8.260;2022-12-11T06:14:56;28.83;;;17.90;;
26656;SDS011;14279;50.010;8.260;2022-12-11T06:17:21;30.43;;;19.00;;
26656;SDS011;14279;50.010;8.260;2022-12-11T06:19:46;35.80;;;18.50;;
26656;SDS011;14279;50.010;8.260;2022-12-11T06:22:11;32.70;;;18.70;;
26656;SDS011;14279;50.010;8.260;2022-12-11T06:24:37;32.20;;;19.73;;
26656;SDS011;14279;50.010;8.260;2022-12-11T06:27:02;33.07;;;19.03;;
26656;SDS011;14279;50.010;8.260;2022-12-11T06:29:27;34.33;;;21.20;;
26656;SDS011;14279;50.010;8.260;2022-12-11T06:31:53;38.10;;;19.10;;
26656;SDS011;14279;50.010;8.260;2022-12-11T06:34:18;33.53;;;19.00;;
26656;SDS011;14279;50.010;8.260;2022-12-11T06:36:43;31.60;;;18.80;;
26656;SDS011;14279;50.010;8.260;2022-12-11T06:39:08;31.43;;;20.30;;
26656;SDS011;14279;50.010;8.260;2022-12-11T06:41:34;32.53;;;20.30;;
26656;SDS011;14279;50.010;8.260;2022-12-11T06:43:59;34.57;;;20.70;;
26656;SDS011;14279;50.010;8.260;2022-12-11T06:46:24;36.47;;;21.83;;
26656;SDS011;14279;50.010;8.260;2022-12-11T06:48:49;36.50;;;23.53;;
26656;SDS011;14279;50.010;8.260;2022-12-11T06:51:19;38.73;;;19.50;;
26656;SDS011;14279;50.010;8.260;2022-12-11T06:53:52;30.93;;;18.83;;
26656;SDS011;14279;50.010;8.260;2022-12-11T06:56:19;35.10;;;20.17;;
26656;SDS011;14279;50.010;8.260;2022-12-11T06:58:45;35.13;;;20.50;;
26656;SDS011;14279;50.010;8.260;2022-12-11T07:01:13;30.00;;;18.93;;
26656;SDS011;14279;50.010;8.260;2022-12-11T07:03:48;33.13;;;19.33;;
26656;SDS011;14279;50.010;8.260;2022-12-11T07:06:17;36.47;;;20.37;;
26656;SDS011;14279;50.010;8.260;2022-12-11T07:08:42;32.60;;;20.20;;
26656;SDS011;14279;50.010;8.260;2022-12-11T07:11:09;34.47;;;21.43;;
26656;SDS011;14279;50.010;8.260;2022-12-11T07:13:36;32.57;;;20.13;;
26656;SDS011;14279;50.010;8.260;2022-12-11T07:16:02;33.93;;;21.70;;
26656;SDS011;14279;50.010;8.260;2022-12-11T07:18:29;38.30;;;21.37;;
26656;SDS011;14279;50.010;8.260;2022-12-11T07:20:56;35.00;;;20.77;;
26656;SDS011;14279;50.010;8.260;2022-12-11T07:23:23;37.13;;;22.00;;
26656;SDS011;14279;50.010;8.260;2022-12-11T07:25:49;36.57;;;20.63;;
26656;SDS011;14279;50.010;8.260;2022-12-11T07:28:14;30.13;;;19.07;;
26656;SDS011;14279;50.010;8.260;2022-12-11T07:30:39;31.90;;;19.57;;
26656;SDS011;14279;50.010;8.260;2022-12-11T07:33:04;36.83;;;21.03;;
26656;SDS011;14279;50.010;8.260;2022-12-11T07:35:30;31.13;;;19.37;;
26656;SDS011;14279;50.010;8.260;2022-12-11T07:37:58;32.83;;;19.17;;
26656;SDS011;14279;50.010;8.260;2022-12-11T07:40:24;31.83;;;19.57;;
26656;SDS011;14279;50.010;8.260;2022-12-11T07:42:49;31.10;;;20.23;;
26656;SDS011;14279;50.010;8.260;2022-12-11T07:45:14;34.00;;;21.00;;
26656;SDS011;14279;50.010;8.260;2022-12-11T07:47:39;35.87;;;20.67;;
26656;SDS011;14279;50.010;8.260;2022-12-11T07:50:05;42.20;;;19.70;;
26656;SDS011;14279;50.010;8.260;2022-12-11T07:52:32;31.47;;;18.80;;
26656;SDS011;14279;50.010;8.260;2022-12-11T07:54:57;38.97;;;21.10;;
26656;SDS011;14279;50.010;8.260;2022-12-11T07:57:23;33.90;;;19.53;;
26656;SDS011;14279;50.010;8.260;2022-12-11T07:59:48;36.53;;;20.63;;
26656;SDS011;14279;50.010;8.260;2022-12-11T08:02:13;34.90;;;21.47;;
26656;SDS011;14279;50.010;8.260;2022-12-11T08:04:38;35.83;;;23.50;;
26656;SDS011;14279;50.010;8.260;2022-12-11T08:07:04;35.30;;;23.00;;
26656;SDS011;14279;50.010;8.260;2022-12-11T08:09:29;34.00;;;21.03;;
26656;SDS011;14279;50.010;8.260;2022-12-11T08:11:54;36.63;;;22.60;;
26656;SDS011;14279;50.010;8.260;2022-12-11T08:14:20;35.97;;;22.80;;
26656;SDS011;14279;50.010;8.260;2022-12-11T08:16:45;40.37;;;22.67;;
26656;SDS011;14279;50.010;8.260;2022-12-11T08:19:11;36.33;;;20.80;;
26656;SDS011;14279;50.010;8.260;2022-12-11T08:21:37;38.83;;;23.43;;
26656;SDS011;14279;50.010;8.260;2022-12-11T08:24:03;37.43;;;24.00;;
26656;SDS011;14279;50.010;8.260;2022-12-11T08:26:29;37.10;;;22.67;;
26656;SDS011;14279;50.010;8.260;2022-12-11T08:28:55;37.40;;;22.90;;
26656;SDS011;14279;50.010;8.260;2022-12-11T08:31:21;37.10;;;22.47;;
26656;SDS011;14279;50.010;8.260;2022-12-11T08:33:47;35.50;;;22.63;;
26656;SDS011;14279;50.010;8.260;2022-12-11T08:36:14;40.07;;;22.97;;
26656;SDS011;14279;50.010;8.260;2022-12-11T08:38:41;41.17;;;24.03;;
26656;SDS011;14279;50.010;8.260;2022-12-11T08:41:10;39.57;;;22.30;;
26656;SDS011;14279;50.010;8.260;2022-12-11T08:43:38;39.27;;;22.40;;
26656;SDS011;14279;50.010;8.260;2022-12-11T08:46:03;42.47;;;23.73;;
26656;SDS011;14279;50.010;8.260;2022-12-11T08:48:29;39.03;;;22.43;;
26656;SDS011;14279;50.010;8.260;2022-12-11T08:50:58;34.40;;;21.80;;
26656;SDS011;14279;50.010;8.260;2022-12-11T08:53:25;35.00;;;22.27;;
26656;SDS011;14279;50.010;8.260;2022-12-11T08:55:51;39.80;;;22.60;;
26656;SDS011;14279;50.010;8.260;2022-12-11T08:58:16;33.37;;;21.20;;
26656;SDS011;14279;50.010;8.260;2022-12-11T09:00:42;39.63;;;22.83;;
26656;SDS011;14279;50.010;8.260;2022-12-11T09:03:07;37.00;;;21.33;;
26656;SDS011;14279;50.010;8.260;2022-12-11T09:05:33;34.40;;;21.30;;
26656;SDS011;14279;50.010;8.260;2022-12-11T09:07:58;34.90;;;21.80;;
26656;SDS011;14279;50.010;8.260;2022-12-11T09:10:23;34.27;;;22.27;;
26656;SDS011;14279;50.010;8.260;2022-12-11T09:12:48;35.10;;;20.73;;
26656;SDS011;14279;50.010;8.260;2022-12-11T09:15:14;33.27;;;20.53;;
26656;SDS011;14279;50.010;8.260;2022-12-11T09:17:40;36.10;;;21.50;;
26656;SDS011;14279;50.010;8.260;2022-12-11T09:20:05;37.27;;;21.73;;
26656;SDS011;14279;50.010;8.260;2022-12-11T09:22:31;46.63;;;23.77;;
26656;SDS011;14279;50.010;8.260;2022-12-11T09:24:57;41.43;;;23.43;;
26656;SDS011;14279;50.010;8.260;2022-12-11T09:27:23;38.57;;;22.57;;
26656;SDS011;14279;50.010;8.260;2022-12-11T09:29:48;37.80;;;22.90;;
26656;SDS011;14279;50.010;8.260;2022-12-11T09:32:14;33.70;;;21.90;;
26656;SDS011;14279;50.010;8.260;2022-12-11T09:34:39;41.10;;;23.50;;
26656;SDS011;14279;50.010;8.260;2022-12-11T09:37:04;41.43;;;22.83;;
26656;SDS011;14279;50.010;8.260;2022-12-11T09:39:29;41.37;;;22.70;;
26656;SDS011;14279;50.010;8.260;2022-12-11T09:42:00;38.37;;;21.43;;
26656;SDS011;14279;50.010;8.260;2022-12-11T09:44:29;40.23;;;21.00;;
26656;SDS011;14279;50.010;8.260;2022-12-11T09:47:03;37.53;;;22.10;;
26656;SDS011;14279;50.010;8.260;2022-12-11T09:49:50;36.17;;;22.33;;
26656;SDS011;14279;50.010;8.260;2022-12-11T09:52:25;53.00;;;23.23;;
26656;SDS011;14279;50.010;8.260;2022-12-11T09:55:02;36.60;;;23.50;;
26656;SDS011;14279;50.010;8.260;2022-12-11T09:57:42;39.33;;;22.87;;
26656;SDS011;14279;50.010;8.260;2022-12-11T10:06:14;43.43;;;24.33;;
26656;SDS011;14279;50.010;8.260;2022-12-11T10:17:24;44.67;;;23.60;;
26656;SDS011;14279;50.010;8.260;2022-12-11T10:19:53;40.10;;;23.73;;
26656;SDS011;14279;50.010;8.260;2022-12-11T10:22:22;38.63;;;23.20;;
26656;SDS011;14279;50.010;8.260;2022-12-11T10:24:55;36.97;;;23.07;;
26656;SDS011;14279;50.010;8.260;2022-12-11T10:27:26;43.87;;;23.43;;
26656;SDS011;14279;50.010;8.260;2022-12-11T10:30:06;38.67;;;23.30;;
26656;SDS011;14279;50.010;8.260;2022-12-11T10:33:00;37.57;;;23.33;;
26656;SDS011;14279;50.010;8.260;2022-12-11T10:35:51;36.13;;;22.70;;
26656;SDS011;14279;50.010;8.260;2022-12-11T10:38:38;38.40;;;22.17;;
26656;SDS011;14279;50.010;8.260;2022-12-11T10:41:15;36.33;;;23.10;;
26656;SDS011;14279;50.010;8.260;2022-12-11T10:43:43;40.27;;;23.50;;
26656;SDS011;14279;50.010;8.260;2022-12-11T10:46:18;37.23;;;23.13;;
26656;SDS011;14279;50.010;8.260;2022-12-11T10:48:46;38.33;;;23.40;;
26656;SDS011;14279;50.010;8.260;2022-12-11T10:51:13;40.77;;;23.67;;
26656;SDS011;14279;50.010;8.260;2022-12-11T10:53:39;34.13;;;21.07;;
26656;SDS011;14279;50.010;8.260;2022-12-11T10:56:07;39.03;;;23.50;;
26656;SDS011;14279;50.010;8.260;2022-12-11T10:58:33;36.53;;;23.20;;
26656;SDS011;14279;50.010;8.260;2022-12-11T11:01:08;38.23;;;23.50;;
26656;SDS011;14279;50.010;8.260;2022-12-11T11:04:01;36.33;;;22.70;;
26656;SDS011;14279;50.010;8.260;2022-12-11T11:06:30;37.90;;;22.80;;
26656;SDS011;14279;50.010;8.260;2022-12-11T11:08:57;38.47;;;22.10;;
26656;SDS011;14279;50.010;8.260;2022-12-11T11:11:35;35.83;;;21.13;;
26656;SDS011;14279;50.010;8.260;2022-12-11T11:16:42;37.80;;;21.27;;
26656;SDS011;14279;50.010;8.260;2022-12-11T11:21:58;31.57;;;19.77;;
26656;SDS011;14279;50.010;8.260;2022-12-11T11:27:01;35.40;;;20.23;;
26656;SDS011;14279;50.010;8.260;2022-12-11T11:29:35;36.27;;;22.00;;
26656;SDS011;14279;50.010;8.260;2022-12-11T11:32:12;35.33;;;20.87;;
26656;SDS011;14279;50.010;8.260;2022-12-11T11:34:38;31.47;;;20.70;;
26656;SDS011;14279;50.010;8.260;2022-12-11T11:37:04;35.77;;;20.10;;
26656;SDS011;14279;50.010;8.260;2022-12-11T11:39:34;29.60;;;19.17;;
26656;SDS011;14279;50.010;8.260;2022-12-11T11:42:06;35.43;;;21.83;;
26656;SDS011;14279;50.010;8.260;2022-12-11T11:44:43;34.30;;;21.23;;
26656;SDS011;14279;50.010;8.260;2022-12-11T11:47:15;39.90;;;22.83;;
26656;SDS011;14279;50.010;8.260;2022-12-11T11:49:54;40.50;;;22.93;;
26656;SDS011;14279;50.010;8.260;2022-12-11T11:52:28;44.90;;;21.90;;
26656;SDS011;14279;50.010;8.260;2022-12-11T12:00:25;36.60;;;21.20;;
26656;SDS011;14279;50.010;8.260;2022-12-11T12:03:14;40.70;;;23.30;;
26656;SDS011;14279;50.010;8.260;2022-12-11T12:05:43;36.43;;;21.83;;
26656;SDS011;14279;50.010;8.260;2022-12-11T12:08:17;35.67;;;23.47;;
26656;SDS011;14279;50.010;8.260;2022-12-11T12:11:05;46.80;;;24.60;;
26656;SDS011;14279;50.010;8.260;2022-12-11T12:25:18;38.33;;;22.47;;
26656;SDS011;14279;50.010;8.260;2022-12-11T12:27:54;41.97;;;25.10;;
26656;SDS011;14279;50.010;8.260;2022-12-11T12:30:37;40.37;;;23.93;;
26656;SDS011;14279;50.010;8.260;2022-12-11T12:41:30;37.43;;;23.23;;
26656;SDS011;14279;50.010;8.260;2022-12-11T12:44:11;44.33;;;24.07;;
26656;SDS011;14279;50.010;8.260;2022-12-11T12:49:20;38.47;;;23.60;;
26656;SDS011;14279;50.010;8.260;2022-12-11T12:51:47;40.10;;;24.50;;
26656;SDS011;14279;50.010;8.260;2022-12-11T12:54:15;40.37;;;23.07;;
26656;SDS011;14279;50.010;8.260;2022-12-11T12:56:43;45.30;;;25.40;;
26656;SDS011;14279;50.010;8.260;2022-12-11T12:59:18;37.20;;;21.20;;
26656;SDS011;14279;50.010;8.260;2022-12-11T13:01:53;36.80;;;24.47;;
26656;SDS011;14279;50.010;8.260;2022-12-11T13:04:28;41.03;;;21.83;;
26656;SDS011;14279;50.010;8.260;2022-12-11T13:06:55;41.23;;;23.80;;
26656;SDS011;14279;50.010;8.260;2022-12-11T13:09:22;38.73;;;23.20;;
26656;SDS011;14279;50.010;8.260;2022-12-11T13:11:49;42.20;;;24.23;;
26656;SDS011;14279;50.010;8.260;2022-12-11T13:16:47;41.20;;;23.93;;
26656;SDS011;14279;50.010;8.260;2022-12-11T13:24:27;42.97;;;24.73;;
26656;SDS011;14279;50.010;8.260;2022-12-11T13:26:55;40.90;;;24.20;;
26656;SDS011;14279;50.010;8.260;2022-12-11T13:29:36;44.87;;;24.40;;
26656;SDS011;14279;50.010;8.260;2022-12-11T13:32:18;41.87;;;23.17;;
26656;SDS011;14279;50.010;8.260;2022-12-11T13:34:51;40.20;;;24.27;;
26656;SDS011;14279;50.010;8.260;2022-12-11T13:37:37;42.30;;;23.83;;
26656;SDS011;14279;50.010;8.260;2022-12-11T13:40:27;43.30;;;24.97;;
26656;SDS011;14279;50.010;8.260;2022-12-11T13:42:59;37.63;;;22.83;;
26656;SDS011;14279;50.010;8.260;2022-12-11T13:45:36;37.43;;;22.60;;
26656;SDS011;14279;50.010;8.260;2022-12-11T13:48:16;34.47;;;22.43;;
26656;SDS011;14279;50.010;8.260;2022-12-11T13:50:43;36.60;;;21.27;;
26656;SDS011;14279;50.010;8.260;2022-12-11T13:53:13;39.60;;;23.23;;
26656;SDS011;14279;50.010;8.260;2022-12-11T13:55:41;42.10;;;25.30;;
26656;SDS011;14279;50.010;8.260;2022-12-11T13:58:18;45.33;;;23.80;;
26656;SDS011;14279;50.010;8.260;2022-12-11T14:03:32;40.70;;;24.73;;
26656;SDS011;14279;50.010;8.260;2022-12-11T14:05:59;45.03;;;24.37;;
26656;SDS011;14279;50.010;8.260;2022-12-11T14:08:34;40.70;;;22.60;;
26656;SDS011;14279;50.010;8.260;2022-12-11T14:11:02;47.03;;;26.07;;
26656;SDS011;14279;50.010;8.260;2022-12-11T14:13:33;38.40;;;23.43;;
26656;SDS011;14279;50.010;8.260;2022-12-11T14:16:00;48.17;;;24.80;;
26656;SDS011;14279;50.010;8.260;2022-12-11T14:18:27;45.40;;;24.67;;
26656;SDS011;14279;50.010;8.260;2022-12-11T14:21:05;39.17;;;23.17;;
26656;SDS011;14279;50.010;8.260;2022-12-11T14:23:34;46.40;;;24.80;;
26656;SDS011;14279;50.010;8.260;2022-12-11T14:26:01;40.10;;;23.13;;
26656;SDS011;14279;50.010;8.260;2022-12-11T14:28:53;48.43;;;24.60;;
26656;SDS011;14279;50.010;8.260;2022-12-11T14:34:03;36.80;;;23.63;;
26656;SDS011;14279;50.010;8.260;2022-12-11T14:36:35;44.90;;;24.33;;
26656;SDS011;14279;50.010;8.260;2022-12-11T14:39:02;39.07;;;24.03;;
26656;SDS011;14279;50.010;8.260;2022-12-11T14:44:15;38.37;;;23.60;;
26656;SDS011;14279;50.010;8.260;2022-12-11T14:46:50;36.37;;;23.37;;
26656;SDS011;14279;50.010;8.260;2022-12-11T14:52:29;41.93;;;22.60;;
26656;SDS011;14279;50.010;8.260;2022-12-11T14:55:13;34.23;;;22.10;;
26656;SDS011;14279;50.010;8.260;2022-12-11T14:57:43;39.20;;;21.20;;
26656;SDS011;14279;50.010;8.260;2022-12-11T15:03:02;43.10;;;22.30;;
26656;SDS011;14279;50.010;8.260;2022-12-11T15:05:48;38.80;;;23.70;;
26656;SDS011;14279;50.010;8.260;2022-12-11T15:08:32;49.60;;;23.97;;
26656;SDS011;14279;50.010;8.260;2022-12-11T15:11:06;37.30;;;21.87;;
26656;SDS011;14279;50.010;8.260;2022-12-11T15:13:35;40.03;;;22.70;;
26656;SDS011;14279;50.010;8.260;2022-12-11T15:16:03;37.40;;;22.93;;
26656;SDS011;14279;50.010;8.260;2022-12-11T15:18:32;47.43;;;23.20;;
26656;SDS011;14279;50.010;8.260;2022-12-11T15:21:04;42.30;;;22.87;;
26656;SDS011;14279;50.010;8.260;2022-12-11T15:23:55;38.80;;;22.40;;
26656;SDS011;14279;50.010;8.260;2022-12-11T15:26:30;39.33;;;22.07;;
26656;SDS011;14279;50.010;8.260;2022-12-11T15:29:00;35.63;;;21.77;;
26656;SDS011;14279;50.010;8.260;2022-12-11T15:31:30;33.47;;;20.97;;
26656;SDS011;14279;50.010;8.260;2022-12-11T15:33:57;40.57;;;21.37;;
26656;SDS011;14279;50.010;8.260;2022-12-11T15:36:33;34.43;;;21.40;;
26656;SDS011;14279;50.010;8.260;2022-12-11T15:39:00;39.03;;;21.80;;
26656;SDS011;14279;50.010;8.260;2022-12-11T15:41:27;33.07;;;19.30;;
26656;SDS011;14279;50.010;8.260;2022-12-11T15:43:57;36.40;;;19.70;;
26656;SDS011;14279;50.010;8.260;2022-12-11T15:46:25;34.17;;;19.20;;
26656;SDS011;14279;50.010;8.260;2022-12-11T15:48:51;37.40;;;21.60;;
26656;SDS011;14279;50.010;8.260;2022-12-11T15:51:17;31.40;;;19.67;;
26656;SDS011;14279;50.010;8.260;2022-12-11T15:53:42;37.70;;;20.67;;
26656;SDS011;14279;50.010;8.260;2022-12-11T15:56:13;33.80;;;20.23;;